createdAt,value
2022-08-28T00:02:05.642Z,93.79
2022-08-28T00:04:33.351Z,94.08
2022-08-28T00:07:01.566Z,94.25
2022-08-28T00:09:29.147Z,94.73
2022-08-28T00:11:56.731Z,94.68
2022-08-28T00:14:26.225Z,95.26
2022-08-28T00:16:54.549Z,95.59
2022-08-28T00:19:24.006Z,95.56
2022-08-28T00:21:52.294Z,96.04
2022-08-28T00:24:19.954Z,96.52
2022-08-28T00:27:05.558Z,96.28
2022-08-28T00:29:33.179Z,96.58
2022-08-28T00:32:00.959Z,96.55
2022-08-28T00:34:33.099Z,96.60
2022-08-28T00:37:01.579Z,97.28
2022-08-28T00:39:29.321Z,97.10
2022-08-28T00:41:57.962Z,97.24
2022-08-28T00:44:27.742Z,97.23
2022-08-28T00:46:57.812Z,97.72
2022-08-28T00:49:28.849Z,97.59
2022-08-28T00:52:09.042Z,97.48
2022-08-28T00:54:59.511Z,97.66
2022-08-28T00:57:48.456Z,97.97
2022-08-28T01:00:22.025Z,98.12
2022-08-28T01:02:49.623Z,98.48
2022-08-28T01:05:18.213Z,98.41
2022-08-28T01:07:46.973Z,98.43
2022-08-28T01:10:19.299Z,98.83
2022-08-28T01:12:47.040Z,98.97
2022-08-28T01:15:18.315Z,99.13
2022-08-28T01:17:50.061Z,99.20
2022-08-28T01:20:22.128Z,99.48
2022-08-28T01:23:09.023Z,99.80
2022-08-28T01:25:39.053Z,99.83
2022-08-28T01:28:12.418Z,99.77
2022-08-28T01:30:42.900Z,100.00
2022-08-28T01:33:10.391Z,100.00
2022-08-28T01:35:43.750Z,100.00
2022-08-28T01:38:11.862Z,100.00
2022-08-28T01:40:45.126Z,100.00
2022-08-28T01:43:24.091Z,100.00
2022-08-28T01:45:56.039Z,100.00
2022-08-28T01:48:26.708Z,100.00
2022-08-28T01:50:55.145Z,100.00
2022-08-28T01:53:25.667Z,100.00
2022-08-28T01:56:02.978Z,100.00
2022-08-28T01:58:37.406Z,100.00
2022-08-28T02:01:06.063Z,100.00
2022-08-28T02:03:33.675Z,100.00
2022-08-28T02:06:01.157Z,100.00
2022-08-28T02:08:28.739Z,100.00
2022-08-28T02:10:56.198Z,100.00
2022-08-28T02:13:25.675Z,100.00
2022-08-28T02:15:53.330Z,100.00
2022-08-28T02:18:22.017Z,100.00
2022-08-28T02:20:49.583Z,100.00
2022-08-28T02:23:17.670Z,100.00
2022-08-28T02:25:45.205Z,100.00
2022-08-28T02:28:12.787Z,100.00
2022-08-28T02:30:41.025Z,100.00
2022-08-28T02:33:08.949Z,100.00
2022-08-28T02:35:36.497Z,100.00
2022-08-28T02:38:04.622Z,100.00
2022-08-28T02:40:32.678Z,100.00
2022-08-28T02:43:00.259Z,100.00
2022-08-28T02:45:27.770Z,100.00
2022-08-28T02:47:56.805Z,100.00
2022-08-28T02:50:24.815Z,100.00
2022-08-28T02:52:52.605Z,100.00
2022-08-28T02:55:20.800Z,100.00
2022-08-28T02:57:49.361Z,100.00
2022-08-28T03:00:21.079Z,100.00
2022-08-28T03:02:49.602Z,100.00
2022-08-28T03:05:20.417Z,100.00
2022-08-28T03:07:48.821Z,100.00
2022-08-28T03:10:16.921Z,100.00
2022-08-28T03:12:44.478Z,100.00
2022-08-28T03:15:12.605Z,100.00
2022-08-28T03:17:40.588Z,100.00
2022-08-28T03:20:11.327Z,100.00
2022-08-28T03:22:57.380Z,100.00
2022-08-28T03:25:25.642Z,100.00
2022-08-28T03:27:53.706Z,100.00
2022-08-28T03:30:23.234Z,100.00
2022-08-28T03:32:50.764Z,100.00
2022-08-28T03:35:18.545Z,100.00
2022-08-28T03:37:46.015Z,100.00
2022-08-28T03:40:14.593Z,100.00
2022-08-28T03:42:42.274Z,100.00
2022-08-28T03:45:18.952Z,100.00
2022-08-28T03:47:46.678Z,100.00
2022-08-28T03:50:14.607Z,100.00
2022-08-28T03:52:42.275Z,100.00
2022-08-28T03:55:12.668Z,100.00
2022-08-28T03:57:40.913Z,100.00
2022-08-28T04:00:13.351Z,100.00
2022-08-28T04:02:46.177Z,100.00
2022-08-28T04:05:14.993Z,100.00
2022-08-28T04:07:42.497Z,100.00
2022-08-28T04:10:10.663Z,100.00
2022-08-28T04:12:38.757Z,100.00
2022-08-28T04:15:07.845Z,100.00
2022-08-28T04:17:37.822Z,100.00
2022-08-28T04:20:06.153Z,100.00
2022-08-28T04:22:33.993Z,100.00
2022-08-28T04:25:01.943Z,100.00
2022-08-28T04:27:29.457Z,100.00
2022-08-28T04:29:56.946Z,100.00
2022-08-28T04:32:24.531Z,100.00
2022-08-28T04:34:52.438Z,100.00
2022-08-28T04:37:20.073Z,100.00
2022-08-28T04:39:50.289Z,100.00
2022-08-28T04:42:17.769Z,100.00
2022-08-28T04:44:45.259Z,100.00
2022-08-28T04:47:12.782Z,100.00
2022-08-28T04:49:40.749Z,100.00
2022-08-28T04:52:08.308Z,100.00
2022-08-28T04:54:36.209Z,100.00
2022-08-28T04:57:06.416Z,100.00
2022-08-28T04:59:34.354Z,100.00
2022-08-28T05:02:01.936Z,100.00
2022-08-28T05:04:29.688Z,100.00
2022-08-28T05:06:57.227Z,100.00
2022-08-28T05:09:24.682Z,100.00
2022-08-28T05:11:53.130Z,100.00
2022-08-28T05:14:21.713Z,100.00
2022-08-28T05:16:52.778Z,100.00
2022-08-28T05:19:22.435Z,100.00
2022-08-28T05:21:49.941Z,100.00
2022-08-28T05:24:18.139Z,100.00
2022-08-28T05:26:48.025Z,100.00
2022-08-28T05:29:16.767Z,100.00
2022-08-28T05:31:44.823Z,100.00
2022-08-28T05:34:14.449Z,100.00
2022-08-28T05:36:42.300Z,100.00
2022-08-28T05:39:12.060Z,100.00
2022-08-28T05:41:43.190Z,100.00
2022-08-28T05:44:14.186Z,100.00
2022-08-28T05:46:44.406Z,100.00
2022-08-28T05:49:13.479Z,100.00
2022-08-28T05:51:42.892Z,100.00
2022-08-28T05:54:11.459Z,100.00
2022-08-28T05:56:40.719Z,100.00
2022-08-28T05:59:09.151Z,100.00
2022-08-28T06:01:40.733Z,100.00
2022-08-28T06:04:15.330Z,100.00
2022-08-28T06:06:43.894Z,100.00
2022-08-28T06:09:15.052Z,100.00
2022-08-28T06:11:46.102Z,100.00
2022-08-28T06:14:17.463Z,100.00
2022-08-28T06:16:47.295Z,100.00
2022-08-28T06:19:15.233Z,100.00
2022-08-28T06:21:44.258Z,100.00
2022-08-28T06:24:13.400Z,100.00
2022-08-28T06:26:42.730Z,99.21
2022-08-28T06:29:12.890Z,97.54
2022-08-28T06:31:41.150Z,97.00
2022-08-28T06:34:10.017Z,95.19
2022-08-28T06:36:42.733Z,92.75
2022-08-28T06:39:12.255Z,91.01
2022-08-28T06:41:43.242Z,91.08
2022-08-28T06:44:13.462Z,89.68
2022-08-28T06:46:42.391Z,87.65
2022-08-28T06:49:10.290Z,86.47
2022-08-28T06:51:37.818Z,86.77
2022-08-28T06:54:06.426Z,85.05
2022-08-28T06:56:34.892Z,83.76
2022-08-28T06:59:02.603Z,83.51
2022-08-28T07:01:34.123Z,82.27
2022-08-28T07:04:06.160Z,81.86
2022-08-28T07:06:36.331Z,80.25
2022-08-28T07:09:06.986Z,79.33
2022-08-28T07:11:36.148Z,79.11
2022-08-28T07:14:05.199Z,78.26
2022-08-28T07:16:38.010Z,76.70
2022-08-28T07:19:06.767Z,76.46
2022-08-28T07:21:43.804Z,76.84
2022-08-28T07:24:14.607Z,76.23
2022-08-28T07:26:43.634Z,75.78
2022-08-28T07:29:11.927Z,75.12
2022-08-28T07:31:42.440Z,74.69
2022-08-28T07:34:12.083Z,73.17
2022-08-28T07:36:40.484Z,73.22
2022-08-28T07:39:09.974Z,73.11
2022-08-28T07:41:39.392Z,74.18
2022-08-28T07:44:25.803Z,74.08
2022-08-28T07:46:59.151Z,73.87
2022-08-28T07:49:27.463Z,73.19
2022-08-28T07:51:55.014Z,72.42
2022-08-28T07:54:23.527Z,71.94
2022-08-28T07:56:52.574Z,71.08
2022-08-28T07:59:21.948Z,70.64
2022-08-28T08:01:51.209Z,69.81
2022-08-28T08:04:21.261Z,69.50
2022-08-28T08:06:50.081Z,69.54
2022-08-28T08:09:20.193Z,68.86
2022-08-28T08:11:50.593Z,67.23
2022-08-28T08:14:18.958Z,66.15
2022-08-28T08:16:47.985Z,66.19
2022-08-28T08:19:17.332Z,64.96
2022-08-28T08:21:48.276Z,64.57
2022-08-28T08:24:22.186Z,64.74
2022-08-28T08:26:59.334Z,62.90
2022-08-28T08:29:29.478Z,61.70
2022-08-28T08:32:02.634Z,60.32
2022-08-28T08:34:30.615Z,59.63
2022-08-28T08:36:58.545Z,58.11
2022-08-28T08:39:26.395Z,58.63
2022-08-28T08:41:58.177Z,56.74
2022-08-28T08:44:33.601Z,55.95
2022-08-28T08:47:15.134Z,55.90
2022-08-28T08:49:57.229Z,56.20
2022-08-28T08:52:37.156Z,54.83
2022-08-28T08:55:31.944Z,54.04
2022-08-28T08:58:07.585Z,52.93
2022-08-28T09:00:40.571Z,52.98
2022-08-28T09:03:22.218Z,52.14
2022-08-28T09:05:55.712Z,51.25
2022-08-28T09:08:30.808Z,51.06
2022-08-28T09:11:05.554Z,51.10
2022-08-28T09:13:49.275Z,48.05
2022-08-28T09:16:36.558Z,48.73
2022-08-28T09:19:04.515Z,48.84
2022-08-28T09:21:35.764Z,48.13
2022-08-28T09:24:11.128Z,46.89
2022-08-28T09:26:40.769Z,46.09
2022-08-28T09:29:17.283Z,45.00
2022-08-28T09:31:45.148Z,46.30
2022-08-28T09:34:24.572Z,46.48
2022-08-28T09:36:54.558Z,45.70
2022-08-28T09:39:28.660Z,45.79
2022-08-28T09:42:22.570Z,44.53
2022-08-28T09:45:09.428Z,44.13
2022-08-28T09:47:43.775Z,45.41
2022-08-28T09:50:31.813Z,44.16
2022-08-28T09:53:10.477Z,45.15
2022-08-28T09:56:01.125Z,45.73
2022-08-28T09:58:43.475Z,44.73
2022-08-28T10:01:29.489Z,45.45
2022-08-28T10:04:13.729Z,43.79
2022-08-28T10:06:43.663Z,44.42
2022-08-28T10:09:29.249Z,44.72
2022-08-28T10:12:17.112Z,47.09
2022-08-28T10:14:56.812Z,48.13
2022-08-28T10:17:42.644Z,47.26
2022-08-28T10:20:48.073Z,46.60
2022-08-28T10:23:29.890Z,43.89
2022-08-28T10:26:21.495Z,43.17
2022-08-28T10:28:56.317Z,42.44
2022-08-28T10:31:36.257Z,42.73
2022-08-28T10:34:26.000Z,43.83
2022-08-28T10:37:05.378Z,43.16
2022-08-28T10:39:55.096Z,43.77
2022-08-28T10:42:39.346Z,43.37
2022-08-28T10:45:19.042Z,44.71
2022-08-28T10:47:58.694Z,43.71
2022-08-28T10:50:31.092Z,43.52
2022-08-28T10:53:03.873Z,41.93
2022-08-28T10:55:56.218Z,42.95
2022-08-28T10:58:27.510Z,43.84
2022-08-28T11:01:26.192Z,44.70
2022-08-28T11:03:54.540Z,44.62
2022-08-28T11:06:46.598Z,44.15
2022-08-28T11:09:30.529Z,44.53
2022-08-28T11:12:28.439Z,42.58
2022-08-28T11:14:56.264Z,41.43
2022-08-28T11:17:25.149Z,41.38
2022-08-28T11:20:16.603Z,41.36
2022-08-28T11:22:50.706Z,40.46
2022-08-28T11:25:32.618Z,41.46
2022-08-28T11:28:25.486Z,40.40
2022-08-28T11:31:16.347Z,40.37
2022-08-28T11:33:55.461Z,40.76
2022-08-28T11:36:23.446Z,40.18
2022-08-28T11:38:54.037Z,41.30
2022-08-28T11:41:22.563Z,42.02
2022-08-28T11:43:53.445Z,40.57
2022-08-28T11:46:26.068Z,41.54
2022-08-28T11:48:57.847Z,40.31
2022-08-28T11:51:43.367Z,39.90
2022-08-28T11:54:31.825Z,40.31
2022-08-28T11:57:27.158Z,38.42
2022-08-28T12:00:07.473Z,38.32
2022-08-28T12:02:47.694Z,39.45
2022-08-28T12:05:18.095Z,39.38
2022-08-28T12:07:51.003Z,38.70
2022-08-28T12:10:21.613Z,37.88
2022-08-28T12:12:50.086Z,38.32
2022-08-28T12:15:40.390Z,40.28
2022-08-28T12:18:16.961Z,39.62
2022-08-28T12:21:05.173Z,39.22
2022-08-28T12:23:39.428Z,37.89
2022-08-28T12:26:28.331Z,37.22
2022-08-28T12:29:16.723Z,37.12
2022-08-28T12:32:23.254Z,36.19
2022-08-28T12:34:59.753Z,36.87
2022-08-28T12:37:52.004Z,37.61
2022-08-28T12:40:22.280Z,38.95
2022-08-28T12:42:55.564Z,39.62
2022-08-28T12:45:30.747Z,37.71
2022-08-28T12:48:01.940Z,39.80
2022-08-28T12:50:33.724Z,39.63
2022-08-28T12:53:02.469Z,40.21
2022-08-28T12:55:30.528Z,39.37
2022-08-28T12:57:58.261Z,37.61
2022-08-28T13:00:35.653Z,35.33
2022-08-28T13:03:08.146Z,35.89
2022-08-28T13:05:39.677Z,35.19
2022-08-28T13:08:11.300Z,32.58
2022-08-28T13:10:44.283Z,33.62
2022-08-28T13:13:29.035Z,33.78
2022-08-28T13:16:01.408Z,34.05
2022-08-28T13:18:39.609Z,33.92
2022-08-28T13:21:32.931Z,33.46
2022-08-28T13:24:22.855Z,32.50
2022-08-28T13:27:10.153Z,33.87
2022-08-28T13:29:38.497Z,33.49
2022-08-28T13:32:10.322Z,32.65
2022-08-28T13:34:47.654Z,32.59
2022-08-28T13:37:46.728Z,31.45
2022-08-28T13:40:45.898Z,31.61
2022-08-28T13:43:10.171Z,32.89
2022-08-28T13:45:44.099Z,32.08
2022-08-28T13:48:17.381Z,33.10
2022-08-28T13:50:48.051Z,32.57
2022-08-28T13:53:18.201Z,33.29
2022-08-28T13:55:46.916Z,33.68
2022-08-28T13:58:15.817Z,32.50
2022-08-28T14:00:47.304Z,33.31
2022-08-28T14:03:41.544Z,35.11
2022-08-28T14:06:11.829Z,36.00
2022-08-28T14:08:44.348Z,36.62
2022-08-28T14:11:14.337Z,35.39
2022-08-28T14:13:47.080Z,36.55
2022-08-28T14:16:22.875Z,36.37
2022-08-28T14:18:51.887Z,35.77
2022-08-28T14:21:19.727Z,35.89
2022-08-28T14:23:47.247Z,36.87
2022-08-28T14:26:14.826Z,37.47
2022-08-28T14:28:42.669Z,38.87
2022-08-28T14:31:14.453Z,40.00
2022-08-28T14:33:45.218Z,39.49
2022-08-28T14:36:22.151Z,41.01
2022-08-28T14:38:53.992Z,39.86
2022-08-28T14:41:23.202Z,40.49
2022-08-28T14:43:51.356Z,39.89
2022-08-28T14:46:21.859Z,39.69
2022-08-28T14:48:50.648Z,40.57
2022-08-28T14:51:19.247Z,40.18
2022-08-28T14:53:47.401Z,41.12
2022-08-28T14:56:14.900Z,41.42
2022-08-28T14:58:42.522Z,41.64
2022-08-28T15:01:10.418Z,41.41
2022-08-28T15:03:38.123Z,41.29
2022-08-28T15:06:10.936Z,40.72
2022-08-28T15:08:38.621Z,40.49
2022-08-28T15:11:08.402Z,40.43
2022-08-28T15:13:35.972Z,40.61
2022-08-28T15:16:10.573Z,41.40
2022-08-28T15:18:45.679Z,41.13
2022-08-28T15:21:21.635Z,41.35
2022-08-28T15:23:53.984Z,41.19
2022-08-28T15:26:23.187Z,41.86
2022-08-28T15:28:52.227Z,42.39
2022-08-28T15:31:20.100Z,43.10
2022-08-28T15:33:47.744Z,41.56
2022-08-28T15:36:15.259Z,41.82
2022-08-28T15:39:00.267Z,41.86
2022-08-28T15:41:29.293Z,41.77
2022-08-28T15:44:01.536Z,42.61
2022-08-28T15:46:31.437Z,42.02
2022-08-28T15:48:59.082Z,41.85
2022-08-28T15:51:26.874Z,41.73
2022-08-28T15:53:56.364Z,42.30
2022-08-28T15:56:24.513Z,41.82
2022-08-28T15:58:52.539Z,41.74
2022-08-28T16:01:22.349Z,42.02
2022-08-28T16:03:49.943Z,42.38
2022-08-28T16:06:21.095Z,43.49
2022-08-28T16:08:49.701Z,43.31
2022-08-28T16:11:22.998Z,43.53
2022-08-28T16:13:52.222Z,43.94
2022-08-28T16:16:19.916Z,43.90
2022-08-28T16:18:48.300Z,43.46
2022-08-28T16:21:16.189Z,43.34
2022-08-28T16:23:44.150Z,43.90
2022-08-28T16:26:11.957Z,44.19
2022-08-28T16:28:39.851Z,43.75
2022-08-28T16:31:18.868Z,43.56
2022-08-28T16:33:47.261Z,44.50
2022-08-28T16:36:15.734Z,45.00
2022-08-28T16:38:45.530Z,45.72
2022-08-28T16:41:19.580Z,46.43
2022-08-28T16:43:47.850Z,46.61
2022-08-28T16:46:21.378Z,46.37
2022-08-28T16:48:49.070Z,46.56
2022-08-28T16:51:17.737Z,46.90
2022-08-28T16:53:45.337Z,46.86
2022-08-28T16:56:15.482Z,47.36
2022-08-28T16:58:44.954Z,47.54
2022-08-28T17:01:13.837Z,47.14
2022-08-28T17:03:42.617Z,46.82
2022-08-28T17:06:31.906Z,46.29
2022-08-28T17:09:00.668Z,46.14
2022-08-28T17:11:29.412Z,46.32
2022-08-28T17:13:57.447Z,46.68
2022-08-28T17:16:27.219Z,47.13
2022-08-28T17:18:54.780Z,47.64
2022-08-28T17:21:43.186Z,47.88
2022-08-28T17:24:12.794Z,48.24
2022-08-28T17:26:41.655Z,48.73
2022-08-28T17:29:09.379Z,48.89
2022-08-28T17:31:37.243Z,48.27
2022-08-28T17:34:07.339Z,48.61
2022-08-28T17:36:37.628Z,48.29
2022-08-28T17:39:08.791Z,48.80
2022-08-28T17:41:36.950Z,49.54
2022-08-28T17:44:06.048Z,50.25
2022-08-28T17:46:37.710Z,51.04
2022-08-28T17:49:06.487Z,51.70
2022-08-28T17:51:42.607Z,52.22
2022-08-28T17:54:11.647Z,52.74
2022-08-28T17:56:39.138Z,53.06
2022-08-28T17:59:06.784Z,53.86
2022-08-28T18:01:34.376Z,54.55
2022-08-28T18:04:02.163Z,55.03
2022-08-28T18:06:29.652Z,56.05
2022-08-28T18:08:57.156Z,56.70
2022-08-28T18:11:25.860Z,57.54
2022-08-28T18:13:53.418Z,58.16
2022-08-28T18:16:21.585Z,58.82
2022-08-28T18:18:49.231Z,59.74
2022-08-28T18:21:16.713Z,60.35
2022-08-28T18:23:44.202Z,61.18
2022-08-28T18:26:12.173Z,61.75
2022-08-28T18:28:39.810Z,62.38
2022-08-28T18:31:08.336Z,62.64
2022-08-28T18:33:37.156Z,63.48
2022-08-28T18:36:09.195Z,63.94
2022-08-28T18:38:36.975Z,64.38
2022-08-28T18:41:06.426Z,64.87
2022-08-28T18:43:34.041Z,65.66
2022-08-28T18:46:03.013Z,65.73
2022-08-28T18:48:32.254Z,66.22
2022-08-28T18:50:59.760Z,66.55
2022-08-28T18:53:28.767Z,66.61
2022-08-28T18:55:56.607Z,66.85
2022-08-28T18:58:28.180Z,67.32
2022-08-28T19:00:55.873Z,67.53
2022-08-28T19:03:23.613Z,68.01
2022-08-28T19:05:51.893Z,68.41
2022-08-28T19:08:19.499Z,68.78
2022-08-28T19:10:47.274Z,68.98
2022-08-28T19:13:15.004Z,69.22
2022-08-28T19:15:42.673Z,69.75
2022-08-28T19:18:10.176Z,69.78
2022-08-28T19:20:37.691Z,70.35
2022-08-28T19:23:05.167Z,70.62
2022-08-28T19:25:32.793Z,70.88
2022-08-28T19:28:02.628Z,71.02
2022-08-28T19:30:33.513Z,71.22
2022-08-28T19:33:03.707Z,71.84
2022-08-28T19:35:31.374Z,71.89
2022-08-28T19:37:58.926Z,72.05
2022-08-28T19:40:27.335Z,72.23
2022-08-28T19:42:54.923Z,72.49
2022-08-28T19:45:23.158Z,72.95
2022-08-28T19:47:51.604Z,72.95
2022-08-28T19:50:20.261Z,73.37
2022-08-28T19:52:47.873Z,73.89
2022-08-28T19:55:25.721Z,74.15
2022-08-28T19:57:53.290Z,74.41
2022-08-28T20:00:25.121Z,74.67
2022-08-28T20:02:53.334Z,74.92
2022-08-28T20:05:21.643Z,75.58
2022-08-28T20:07:49.731Z,76.03
2022-08-28T20:10:18.415Z,76.66
2022-08-28T20:12:48.367Z,77.07
2022-08-28T20:15:18.318Z,77.59
2022-08-28T20:17:49.843Z,77.96
2022-08-28T20:20:24.577Z,78.13
2022-08-28T20:22:54.407Z,78.91
2022-08-28T20:25:22.305Z,79.31
2022-08-28T20:27:49.829Z,79.69
2022-08-28T20:30:18.032Z,79.93
2022-08-28T20:32:45.838Z,81.17
2022-08-28T20:35:15.335Z,81.50
2022-08-28T20:37:45.326Z,82.15
2022-08-28T20:40:19.561Z,82.57
2022-08-28T20:42:47.465Z,82.67
2022-08-28T20:45:16.537Z,83.45
2022-08-28T20:47:44.664Z,83.72
2022-08-28T20:50:13.823Z,83.56
2022-08-28T20:52:42.268Z,83.46
2022-08-28T20:55:10.710Z,83.36
2022-08-28T20:57:38.326Z,83.25
2022-08-28T21:00:10.552Z,83.19
2022-08-28T21:02:38.271Z,83.92
2022-08-28T21:05:06.697Z,84.05
2022-08-28T21:07:35.207Z,84.46
2022-08-28T21:10:05.346Z,84.85
2022-08-28T21:12:39.942Z,85.29
2022-08-28T21:15:09.471Z,85.45
2022-08-28T21:17:37.310Z,85.87
2022-08-28T21:20:12.997Z,86.62
2022-08-28T21:22:41.437Z,86.80
2022-08-28T21:25:11.388Z,86.96
2022-08-28T21:27:39.304Z,87.17
2022-08-28T21:30:08.614Z,86.63
2022-08-28T21:32:36.933Z,86.61
2022-08-28T21:35:06.955Z,86.47
2022-08-28T21:37:35.155Z,86.37
2022-08-28T21:40:03.881Z,86.07
2022-08-28T21:42:31.545Z,86.08
2022-08-28T21:44:59.248Z,86.41
2022-08-28T21:47:27.423Z,86.46
2022-08-28T21:49:56.849Z,86.23
2022-08-28T21:52:28.111Z,86.05
2022-08-28T21:55:08.020Z,86.25
2022-08-28T21:57:35.793Z,86.42
2022-08-28T22:00:05.598Z,86.51
2022-08-28T22:02:33.214Z,86.34
2022-08-28T22:05:00.782Z,86.08
2022-08-28T22:07:28.287Z,85.98
2022-08-28T22:09:55.776Z,86.22
2022-08-28T22:12:23.250Z,86.41
2022-08-28T22:14:50.742Z,86.62
2022-08-28T22:17:18.220Z,86.48
2022-08-28T22:19:46.730Z,86.88
2022-08-28T22:22:32.117Z,87.32
2022-08-28T22:24:59.920Z,88.31
2022-08-28T22:27:27.522Z,88.54
2022-08-28T22:29:54.989Z,88.96
2022-08-28T22:32:25.524Z,89.26
2022-08-28T22:34:55.676Z,89.33
2022-08-28T22:37:23.938Z,89.63
2022-08-28T22:39:51.568Z,89.53
2022-08-28T22:42:19.497Z,89.33
2022-08-28T22:44:47.239Z,89.45
2022-08-28T22:47:14.769Z,89.67
2022-08-28T22:49:42.655Z,89.92
2022-08-28T22:52:11.814Z,90.47
2022-08-28T22:54:39.395Z,90.77
2022-08-28T22:57:06.924Z,91.00
2022-08-28T22:59:35.334Z,91.03
2022-08-28T23:02:03.873Z,91.15
2022-08-28T23:04:31.926Z,91.33
2022-08-28T23:06:59.423Z,91.31
2022-08-28T23:09:27.519Z,91.35
2022-08-28T23:11:55.023Z,91.70
2022-08-28T23:14:25.797Z,92.07
2022-08-28T23:16:55.866Z,91.96
2022-08-28T23:19:23.494Z,92.55
2022-08-28T23:21:51.199Z,93.12
2022-08-28T23:24:19.375Z,93.16
2022-08-28T23:26:46.928Z,93.62
2022-08-28T23:29:15.237Z,93.90
2022-08-28T23:31:42.858Z,93.94
2022-08-28T23:34:10.415Z,94.76
2022-08-28T23:36:39.420Z,95.18
2022-08-28T23:39:10.491Z,94.61
2022-08-28T23:41:37.990Z,94.54
2022-08-28T23:44:09.043Z,95.17
2022-08-28T23:46:41.630Z,94.90
2022-08-28T23:49:10.082Z,94.99
2022-08-28T23:51:37.751Z,95.56
2022-08-28T23:54:05.474Z,96.09
2022-08-28T23:56:33.802Z,96.03
2022-08-28T23:59:01.340Z,95.76
